Time;durP1;ratioP1;P1;durP2;ratioP2;P2;SDS_P1;SDS_P2;PMS_P1;PMS_P2;Temp;Humidity;BMP_temperature;BMP_pressure;BME280_temperature;BME280_humidity;BME280_pressure;Samples;Min_cycle;Max_cycle;Signal;HPM_P1;HPM_P2
2021/07/29 00:00:16;;;;;;;24.03;10.00;;;;;;;25.81;52.20;94935.97;5053162;28;20459;-77
2021/07/29 00:02:43;;;;;;;22.60;9.60;;;;;;;25.83;53.15;94935.72;5053611;28;20448;-77
2021/07/29 00:05:10;;;;;;;20.50;8.67;;;;;;;25.88;53.04;94933.19;5053252;28;20956;-77
2021/07/29 00:07:37;;;;;;;22.33;8.10;;;;;;;25.92;55.45;94940.59;5053291;28;20531;-77
2021/07/29 00:10:06;;;;;;;22.93;9.23;;;;;;;25.90;52.04;94931.91;5052983;28;20449;-77
2021/07/29 00:12:32;;;;;;;17.97;8.93;;;;;;;25.89;52.77;94935.66;5053158;28;20455;-77
2021/07/29 00:14:59;;;;;;;22.40;8.87;;;;;;;25.87;54.58;94943.13;5053197;28;20442;-77
2021/07/29 00:17:30;;;;;;;16.67;9.77;;;;;;;25.85;55.81;94945.22;5053427;28;20456;-77
2021/07/29 00:19:56;;;;;;;27.87;8.53;;;;;;;25.83;53.86;94947.31;5053021;28;21012;-78
2021/07/29 00:22:23;;;;;;;19.93;9.53;;;;;;;25.81;53.74;94953.97;5053288;28;20454;-77
2021/07/29 00:24:50;;;;;;;24.93;10.87;;;;;;;25.75;53.42;94960.22;5053078;28;20220;-76
2021/07/29 00:27:17;;;;;;;19.37;9.97;;;;;;;25.73;52.48;94955.03;5053039;28;20448;-76
2021/07/29 00:29:44;;;;;;;28.03;9.37;;;;;;;25.68;52.15;94941.44;5052863;28;20449;-76
2021/07/29 00:32:10;;;;;;;26.80;11.83;;;;;;;25.68;55.12;94946.00;5052972;28;20477;-77
2021/07/29 00:34:39;;;;;;;14.07;10.43;;;;;;;25.66;51.75;94940.81;5052967;28;20442;-76
2021/07/29 00:37:07;;;;;;;22.10;10.80;;;;;;;25.63;53.09;94941.28;5052945;28;20459;-76
2021/07/29 00:39:34;;;;;;;20.13;10.13;;;;;;;25.63;52.28;94943.97;5053146;28;20777;-78
2021/07/29 00:42:03;;;;;;;17.80;9.73;;;;;;;25.59;53.89;94940.06;5052713;28;20452;-77
2021/07/29 00:44:31;;;;;;;12.77;9.30;;;;;;;25.48;51.82;94935.44;5033760;28;20485;-77
2021/07/29 00:46:58;;;;;;;15.77;9.27;;;;;;;25.46;52.11;94938.34;5052772;28;20833;-77
2021/07/29 00:49:25;;;;;;;28.60;9.60;;;;;;;25.50;51.78;94936.84;5052802;28;20448;-77
2021/07/29 00:51:54;;;;;;;18.13;9.43;;;;;;;25.55;55.37;94922.75;5052551;28;20496;-78
2021/07/29 00:54:23;;;;;;;15.77;9.47;;;;;;;25.49;51.71;94918.28;5052973;28;20452;-78
2021/07/29 00:56:51;;;;;;;25.23;12.33;;;;;;;25.38;53.61;94919.78;5052511;28;20503;-77
2021/07/29 00:59:19;;;;;;;20.00;12.07;;;;;;;25.40;52.34;94922.25;5052752;28;20810;-78
2021/07/29 01:01:45;;;;;;;20.00;10.17;;;;;;;25.33;52.43;94920.47;5035920;28;20832;-78
2021/07/29 01:04:12;;;;;;;20.77;10.47;;;;;;;25.30;52.66;94915.53;5056879;28;20448;-77
2021/07/29 01:06:40;;;;;;;24.13;10.53;;;;;;;25.24;52.66;94913.75;5056737;28;20940;-77
2021/07/29 01:09:09;;;;;;;18.23;8.97;;;;;;;25.30;53.57;94904.78;5037941;28;20467;-77
2021/07/29 01:11:36;;;;;;;21.17;9.70;;;;;;;25.32;54.09;94901.88;5056601;28;20484;-78
2021/07/29 01:14:03;;;;;;;16.27;9.90;;;;;;;25.31;52.53;94902.94;5056718;28;20444;-77
2021/07/29 01:16:30;;;;;;;18.47;10.67;;;;;;;25.32;52.67;94908.06;5056786;28;20458;-77
2021/07/29 01:18:58;;;;;;;21.27;9.87;;;;;;;25.37;53.58;94909.28;5056796;28;20555;-77
2021/07/29 01:21:28;;;;;;;22.30;9.50;;;;;;;25.40;51.60;94906.13;5056452;28;20460;-77
2021/07/29 01:23:55;;;;;;;22.60;10.53;;;;;;;25.42;52.01;94906.75;5056354;28;20442;-77
2021/07/29 01:26:22;;;;;;;19.50;8.83;;;;;;;25.50;52.88;94909.16;5056544;28;20475;-77
2021/07/29 01:28:49;;;;;;;20.07;9.73;;;;;;;25.51;53.71;94913.50;5056239;28;20917;-77
2021/07/29 01:31:16;;;;;;;18.33;9.20;;;;;;;25.50;52.28;94903.78;5056260;28;20480;-78
2021/07/29 01:33:43;;;;;;;21.77;10.50;;;;;;;25.44;52.08;94896.59;5056051;28;20536;-77
2021/07/29 01:36:10;;;;;;;27.53;10.70;;;;;;;25.37;51.98;94898.53;5056053;28;20456;-77
2021/07/29 01:38:39;;;;;;;20.40;9.70;;;;;;;25.36;52.93;94886.97;5056396;28;20796;-77
2021/07/29 01:41:06;;;;;;;25.23;10.70;;;;;;;25.37;51.65;94898.53;5056026;28;20451;-77
2021/07/29 01:43:33;;;;;;;16.87;8.40;;;;;;;25.40;53.18;94904.28;5056276;28;20456;-77
2021/07/29 01:46:01;;;;;;;26.73;10.70;;;;;;;25.39;52.91;94897.25;5056109;28;20484;-77
2021/07/29 01:48:29;;;;;;;20.17;9.33;;;;;;;25.32;52.81;94889.28;5055598;28;20527;-77
2021/07/29 01:50:56;;;;;;;21.27;10.40;;;;;;;25.25;52.54;94883.16;5056077;28;20574;-77
2021/07/29 01:53:23;;;;;;;26.13;10.20;;;;;;;25.21;51.30;94881.13;5055716;28;20886;-77
2021/07/29 01:55:52;;;;;;;22.13;10.63;;;;;;;25.24;51.53;94886.06;5055827;28;20449;-77
2021/07/29 01:58:19;;;;;;;16.27;10.13;;;;;;;25.23;51.90;94876.34;5056122;28;20444;-77
2021/07/29 02:00:49;;;;;;;21.33;9.33;;;;;;;25.25;51.29;94885.00;5055778;28;20452;-77
2021/07/29 02:03:16;;;;;;;23.53;10.80;;;;;;;25.26;51.43;94886.66;5055714;28;20452;-77
2021/07/29 02:05:43;;;;;;;26.33;10.70;;;;;;;25.23;51.06;94892.47;5055413;28;20452;-77
2021/07/29 02:08:10;;;;;;;23.03;10.27;;;;;;;25.14;51.33;94899.13;5055501;28;20911;-77
2021/07/29 02:10:37;;;;;;;25.33;10.20;;;;;;;25.08;50.70;94905.41;5055690;28;20452;-78
2021/07/29 02:13:05;;;;;;;21.00;10.00;;;;;;;25.06;51.38;94894.06;5054817;28;20445;-77
2021/07/29 02:15:32;;;;;;;19.73;9.53;;;;;;;25.11;51.31;94888.84;5055653;28;20487;-77
2021/07/29 02:18:00;;;;;;;22.57;9.30;;;;;;;25.13;50.94;94884.88;5055431;28;20437;-77
2021/07/29 02:20:28;;;;;;;19.57;9.37;;;;;;;25.01;51.82;94892.03;5055395;28;20451;-77
2021/07/29 02:22:55;;;;;;;27.17;10.70;;;;;;;25.07;52.09;94899.19;5036439;28;20447;-77
2021/07/29 02:25:22;;;;;;;29.20;10.80;;;;;;;25.14;53.94;94902.66;5055234;28;20455;-77
2021/07/29 02:27:49;;;;;;;25.10;9.00;;;;;;;25.10;52.87;94898.75;5052036;28;20456;-78
2021/07/29 02:30:17;;;;;;;25.33;10.63;;;;;;;25.10;53.38;94898.75;5054406;28;20451;-77
2021/07/29 02:32:44;;;;;;;16.20;10.50;;;;;;;25.02;52.96;94901.72;5054914;28;20494;-77
2021/07/29 02:35:11;;;;;;;17.87;9.03;;;;;;;24.90;51.92;94887.34;5055551;28;20448;-78
2021/07/29 02:37:38;;;;;;;23.37;10.17;;;;;;;24.88;51.67;94887.56;5055239;28;20445;-77
2021/07/29 02:40:06;;;;;;;16.43;8.80;;;;;;;24.89;51.91;94885.72;5054982;28;20449;-77
2021/07/29 02:42:33;;;;;;;20.17;9.80;;;;;;;24.89;51.77;94880.34;5055082;28;20450;-77
2021/07/29 02:45:00;;;;;;;19.90;9.43;;;;;;;24.88;53.28;94884.88;5055123;28;20477;-78
2021/07/29 02:47:28;;;;;;;30.00;11.37;;;;;;;24.96;51.89;94883.78;5019853;28;20448;-77
2021/07/29 02:49:55;;;;;;;28.87;10.80;;;;;;;25.00;51.74;94882.34;5054762;28;20455;-77
2021/07/29 02:52:22;;;;;;;14.00;8.93;;;;;;;25.01;52.21;94875.91;5055029;28;20484;-77
2021/07/29 02:54:49;;;;;;;17.90;9.70;;;;;;;24.99;52.31;94876.13;5055150;28;20452;-78
2021/07/29 02:57:16;;;;;;;28.50;10.37;;;;;;;24.95;53.11;94879.47;5054473;28;20450;-77
2021/07/29 02:59:43;;;;;;;21.60;10.90;;;;;;;24.93;53.10;94877.00;5054488;28;20452;-77
2021/07/29 03:02:10;;;;;;;22.47;11.03;;;;;;;24.83;51.62;94865.06;5054566;28;20453;-78
2021/07/29 03:04:39;;;;;;;22.83;9.20;;;;;;;24.76;51.71;94865.13;5054672;28;20458;-77
2021/07/29 03:07:06;;;;;;;16.90;8.80;;;;;;;24.79;52.64;94870.06;5054425;28;20449;-77
2021/07/29 03:09:33;;;;;;;26.00;11.67;;;;;;;24.83;55.46;94873.13;5054785;28;20450;-77
2021/07/29 03:12:00;;;;;;;16.67;10.00;;;;;;;24.83;52.26;94865.06;5054259;28;20485;-78
2021/07/29 03:14:27;;;;;;;20.27;10.80;;;;;;;24.83;52.71;94871.28;5035598;28;20444;-77
2021/07/29 03:16:54;;;;;;;20.20;10.30;;;;;;;24.84;53.21;94864.03;5035753;28;20474;-78
2021/07/29 03:19:21;;;;;;;19.27;11.30;;;;;;;24.82;52.41;94875.00;5054347;28;20449;-77
2021/07/29 03:21:49;;;;;;;20.20;10.70;;;;;;;24.87;52.04;94877.88;5054267;28;20460;-77
2021/07/29 03:24:16;;;;;;;22.30;10.43;;;;;;;24.92;51.71;94869.97;5053979;28;20448;-77
2021/07/29 03:26:43;;;;;;;24.73;10.80;;;;;;;24.93;52.01;94884.22;5053482;28;20535;-78
2021/07/29 03:29:09;;;;;;;24.13;9.00;;;;;;;24.94;50.70;94885.88;5053904;28;20456;-77
2021/07/29 03:31:36;;;;;;;24.73;11.00;;;;;;;24.98;51.82;94893.28;5054057;28;20493;-78
2021/07/29 03:34:03;;;;;;;26.90;10.27;;;;;;;24.97;52.66;94888.13;5018946;28;20444;-77
2021/07/29 03:36:30;;;;;;;24.23;11.93;;;;;;;25.07;52.80;94893.00;5054100;28;20444;-77
2021/07/29 03:38:59;;;;;;;22.53;9.63;;;;;;;25.13;52.03;94898.31;5053797;28;20454;-77
2021/07/29 03:41:26;;;;;;;21.03;10.00;;;;;;;25.07;51.19;94904.56;5019267;28;20537;-77
2021/07/29 03:43:53;;;;;;;27.87;9.80;;;;;;;24.99;53.74;94902.16;5053985;28;20450;-77
2021/07/29 03:46:20;;;;;;;24.43;10.10;;;;;;;24.83;54.94;94906.16;5053527;28;20474;-77
2021/07/29 03:48:47;;;;;;;23.37;10.90;;;;;;;24.69;55.18;94901.94;5034790;28;20444;-77
2021/07/29 03:51:14;;;;;;;24.60;11.73;;;;;;;24.42;57.02;94912.00;5053829;28;20447;-81
2021/07/29 03:53:41;;;;;;;19.90;10.47;;;;;;;24.37;58.87;94914.53;5056435;28;20471;-89
2021/07/29 03:56:09;;;;;;;20.73;10.37;;;;;;;24.50;59.46;94919.81;5059167;28;20433;-91
2021/07/29 03:58:37;;;;;;;26.20;12.03;;;;;;;24.75;59.54;94916.34;5058354;28;20447;-92
2021/07/29 04:01:09;;;;;;;16.63;10.87;;;;;;;24.98;59.59;94913.91;5059062;28;20511;-91
2021/07/29 04:03:36;;;;;;;22.40;12.13;;;;;;;25.00;58.82;94919.91;5058693;28;20547;-89
2021/07/29 04:06:03;;;;;;;30.90;11.77;;;;;;;25.05;57.78;94914.72;5054399;28;20467;-79
2021/07/29 04:08:30;;;;;;;15.67;10.03;;;;;;;25.22;57.94;94917.69;5053527;28;20455;-77
2021/07/29 04:10:59;;;;;;;22.80;11.90;;;;;;;25.25;57.95;94918.06;5053304;28;20457;-78
2021/07/29 04:13:27;;;;;;;18.47;10.80;;;;;;;25.23;57.71;94920.16;5053210;28;20492;-78
2021/07/29 04:15:59;;;;;;;26.83;10.43;;;;;;;25.26;58.14;94917.03;5052980;28;20448;-77
2021/07/29 04:18:27;;;;;;;25.97;11.50;;;;;;;25.33;57.86;94916.97;5053173;28;20456;-78
2021/07/29 04:20:53;;;;;;;22.77;12.37;;;;;;;25.47;57.50;94912.28;5052767;28;20452;-78
2021/07/29 04:23:20;;;;;;;29.37;12.47;;;;;;;25.59;56.63;94913.19;5018357;28;20453;-81
2021/07/29 04:25:47;;;;;;;19.87;10.23;;;;;;;25.76;54.54;94917.00;5053794;28;20528;-78
2021/07/29 04:28:14;;;;;;;26.87;12.00;;;;;;;26.04;53.29;94921.03;5052794;28;20951;-78
2021/07/29 04:30:42;;;;;;;20.83;9.83;;;;;;;26.26;52.28;94908.72;5052661;28;20445;-78
2021/07/29 04:33:09;;;;;;;27.33;12.40;;;;;;;26.57;51.33;94913.09;5052870;28;20493;-78
2021/07/29 04:35:38;;;;;;;17.97;10.20;;;;;;;26.88;52.63;94914.72;5018955;28;20460;-85
2021/07/29 04:38:05;;;;;;;29.27;10.40;;;;;;;27.30;57.21;94920.94;5035217;28;20917;-85
2021/07/29 04:40:32;;;;;;;28.07;12.40;;;;;;;27.75;57.80;94912.28;5054038;28;21006;-84
2021/07/29 04:42:59;;;;;;;19.10;9.67;;;;;;;28.19;54.21;94918.09;5053304;28;20664;-84
2021/07/29 04:49:18;;;;;;;20.90;10.10;;;;;;;28.97;48.24;94912.91;5053320;28;20457;-85
2021/07/29 04:51:46;;;;;;;26.83;11.30;;;;;;;29.35;48.14;94916.75;5054239;28;20497;-87
2021/07/29 04:54:13;;;;;;;20.30;10.83;;;;;;;29.73;47.27;94915.19;5018772;28;20485;-85
2021/07/29 04:56:40;;;;;;;23.97;10.73;;;;;;;30.10;46.04;94921.72;5054551;28;20427;-88
2021/07/29 04:59:07;;;;;;;20.03;10.57;;;;;;;30.49;46.67;94914.34;5034151;28;20788;-79
2021/07/29 05:01:37;;;;;;;18.17;10.90;;;;;;;30.71;45.13;94917.06;5052590;28;20447;-78
2021/07/29 05:04:04;;;;;;;19.77;9.33;;;;;;;30.97;44.52;94918.13;5052634;28;20450;-78
2021/07/29 05:06:34;;;;;;;16.50;10.03;;;;;;;31.26;42.45;94915.19;5033683;28;20945;-77
2021/07/29 05:09:01;;;;;;;14.00;10.03;;;;;;;31.43;40.65;94913.13;5034472;28;20461;-77
2021/07/29 05:11:28;;;;;;;15.37;10.07;;;;;;;31.61;41.12;94920.88;5052496;28;20448;-77
2021/07/29 05:13:55;;;;;;;20.13;10.10;;;;;;;31.81;40.94;94917.53;5052468;28;20491;-78
2021/07/29 05:16:22;;;;;;;18.50;11.13;;;;;;;32.00;41.68;94907.84;5033716;28;20434;-79
2021/07/29 05:18:49;;;;;;;18.40;11.20;;;;;;;32.04;37.85;94910.84;5052512;28;20546;-77
2021/07/29 05:21:17;;;;;;;19.50;11.20;;;;;;;32.14;38.69;94921.78;5052503;28;20456;-77
2021/07/29 05:23:45;;;;;;;16.40;9.73;;;;;;;32.30;39.87;94919.97;5052362;28;20953;-77
2021/07/29 05:26:16;;;;;;;15.90;10.20;;;;;;;32.47;38.57;94914.34;5052504;28;20445;-76
2021/07/29 05:28:44;;;;;;;23.97;10.33;;;;;;;32.60;37.23;94919.28;5052392;28;20453;-78
2021/07/29 05:31:11;;;;;;;22.17;10.83;;;;;;;32.72;37.59;94921.78;5052500;28;20457;-77
2021/07/29 05:33:38;;;;;;;19.40;11.23;;;;;;;32.87;36.88;94927.25;5050195;28;20484;-77
2021/07/29 05:36:06;;;;;;;23.90;10.27;;;;;;;33.03;38.46;94928.13;5052135;28;20450;-77
2021/07/29 05:38:33;;;;;;;26.10;10.83;;;;;;;33.25;38.41;94931.38;5052168;28;20520;-77
2021/07/29 05:41:05;;;;;;;25.33;11.73;;;;;;;33.40;37.21;94925.19;5052036;28;20940;-79
2021/07/29 05:43:32;;;;;;;17.97;10.27;;;;;;;33.47;36.50;94931.16;5043867;28;20438;-79
2021/07/29 05:45:59;;;;;;;19.03;11.07;;;;;;;33.55;36.69;94933.38;5052282;28;21083;-79
2021/07/29 05:48:26;;;;;;;26.13;10.23;;;;;;;33.62;36.45;94936.63;5053064;28;20449;-78
2021/07/29 05:50:56;;;;;;;16.07;10.27;;;;;;;33.67;36.95;94935.78;5055936;28;20449;-79
2021/07/29 05:53:24;;;;;;;22.17;11.00;;;;;;;33.69;35.81;94939.06;5055471;28;20477;-78
2021/07/29 05:55:53;;;;;;;20.20;9.00;;;;;;;33.61;37.62;94939.63;5055934;28;20518;-82
2021/07/29 05:58:21;;;;;;;14.53;9.53;;;;;;;33.74;38.73;94948.03;5020898;28;20457;-79
2021/07/29 06:00:48;;;;;;;17.53;9.60;;;;;;;33.79;37.62;94948.03;5055962;28;20446;-78
2021/07/29 06:03:15;;;;;;;17.00;10.57;;;;;;;34.00;36.85;94942.59;5056020;28;20782;-79
2021/07/29 06:05:43;;;;;;;26.20;11.20;;;;;;;34.02;35.80;94932.22;5055933;28;20916;-80
2021/07/29 06:08:10;;;;;;;29.67;11.53;;;;;;;34.01;39.74;94944.22;5056354;28;20444;-81
2021/07/29 06:10:37;;;;;;;17.30;9.40;;;;;;;33.97;38.01;94949.41;5056113;28;20429;-80
2021/07/29 06:13:04;;;;;;;22.20;10.90;;;;;;;34.16;37.56;94944.19;5056429;28;20482;-81
2021/07/29 06:15:33;;;;;;;20.73;10.90;;;;;;;34.15;37.04;94950.75;5055748;28;20437;-81
2021/07/29 06:18:00;;;;;;;23.37;11.10;;;;;;;34.37;44.17;94953.13;5055820;28;20441;-82
2021/07/29 06:20:27;;;;;;;24.27;9.93;;;;;;;34.54;36.90;94959.09;5055787;28;20515;-77
2021/07/29 06:22:54;;;;;;;24.03;11.00;;;;;;;34.63;35.63;94951.13;5055664;28;20452;-78
2021/07/29 06:25:21;;;;;;;20.63;10.57;;;;;;;34.72;34.62;94955.75;5055775;28;20438;-78
2021/07/29 06:27:49;;;;;;;24.80;12.00;;;;;;;34.75;34.94;94971.56;5055751;28;20452;-79
2021/07/29 06:30:16;;;;;;;23.50;10.30;;;;;;;34.90;33.63;94957.03;5055932;28;20434;-78
2021/07/29 06:32:45;;;;;;;21.77;10.87;;;;;;;35.08;34.94;94959.13;5055365;28;20482;-78
2021/07/29 06:35:12;;;;;;;18.97;10.60;;;;;;;35.22;32.74;94963.94;5055337;28;20453;-77
2021/07/29 06:37:39;;;;;;;19.43;10.37;;;;;;;35.28;32.14;94962.84;5055383;28;20446;-77
2021/07/29 06:40:08;;;;;;;26.93;10.77;;;;;;;35.18;32.47;94955.50;5055198;28;20869;-77
2021/07/29 06:42:35;;;;;;;15.30;10.17;;;;;;;35.13;32.94;94962.91;5054957;28;20925;-77
2021/07/29 06:45:02;;;;;;;25.83;10.30;;;;;;;35.30;32.50;94963.38;5054871;28;20484;-77
2021/07/29 06:47:31;;;;;;;31.00;11.80;;;;;;;35.27;31.95;94956.53;5036054;28;20445;-77
2021/07/29 06:50:00;;;;;;;25.80;12.10;;;;;;;34.88;31.76;94961.16;5055040;28;20481;-77
2021/07/29 06:52:27;;;;;;;21.93;11.10;;;;;;;34.76;32.63;94959.53;5019812;28;20488;-77
2021/07/29 06:54:54;;;;;;;20.90;11.63;;;;;;;34.49;34.68;94956.38;5055208;28;20442;-76
2021/07/29 06:57:21;;;;;;;18.60;10.67;;;;;;;34.04;34.24;94943.66;5054715;28;20452;-76
2021/07/29 06:59:48;;;;;;;17.37;11.17;;;;;;;34.24;34.80;94943.63;5052310;28;20799;-77
2021/07/29 07:02:15;;;;;;;24.70;12.13;;;;;;;34.17;34.53;94937.66;5054696;28;20460;-77
2021/07/29 07:04:42;;;;;;;21.40;10.53;;;;;;;34.11;33.83;94946.91;5054999;28;20442;-77
2021/07/29 07:07:16;;;;;;;24.97;12.47;;;;;;;33.59;35.40;94930.91;5054940;28;20452;-76
2021/07/29 07:09:43;;;;;;;22.67;11.50;;;;;;;33.85;35.10;94935.28;5054781;28;20503;-77
2021/07/29 07:12:10;;;;;;;19.73;11.47;;;;;;;33.36;34.03;94940.44;5054343;28;20441;-77
2021/07/29 07:14:37;;;;;;;16.47;10.83;;;;;;;33.44;33.98;94921.66;5054358;28;20455;-77
2021/07/29 07:17:06;;;;;;;20.60;10.90;;;;;;;33.66;34.53;94921.38;5018992;28;20442;-77
2021/07/29 07:19:33;;;;;;;20.13;10.30;;;;;;;34.06;34.28;94911.53;5054618;28;20457;-77
2021/07/29 07:22:00;;;;;;;17.47;10.60;;;;;;;34.42;32.01;94917.72;5054350;28;20936;-77
2021/07/29 07:24:29;;;;;;;21.77;9.73;;;;;;;34.66;32.28;94918.69;5019429;28;20449;-77
2021/07/29 07:26:56;;;;;;;23.37;11.57;;;;;;;35.00;33.35;94929.72;5053945;28;20532;-76
2021/07/29 07:29:23;;;;;;;22.43;10.83;;;;;;;35.45;32.66;94935.16;5054256;28;21145;-77
2021/07/29 07:31:50;;;;;;;24.90;11.00;;;;;;;35.71;31.36;94931.13;5035323;28;20430;-77
2021/07/29 07:34:17;;;;;;;25.67;10.57;;;;;;;35.90;30.82;94931.25;5053692;28;20869;-77
2021/07/29 07:36:44;;;;;;;32.03;12.47;;;;;;;35.97;31.23;94924.34;5053947;28;20455;-77
2021/07/29 07:39:11;;;;;;;21.60;11.00;;;;;;;36.27;30.95;94920.47;5053865;28;20456;-77
2021/07/29 07:41:39;;;;;;;25.17;11.17;;;;;;;36.56;31.23;94922.34;5053709;28;20453;-77
2021/07/29 07:44:06;;;;;;;26.77;11.30;;;;;;;36.78;31.15;94928.13;5053475;28;20844;-77
2021/07/29 07:46:33;;;;;;;19.63;11.30;;;;;;;36.95;30.13;94935.00;5053108;28;20485;-77
2021/07/29 07:49:00;;;;;;;22.03;10.13;;;;;;;36.91;29.65;94937.50;5052891;28;20777;-77
2021/07/29 07:51:28;;;;;;;26.47;11.30;;;;;;;36.65;28.80;94937.00;5053046;28;20446;-77
2021/07/29 07:53:55;;;;;;;29.30;11.07;;;;;;;36.29;29.55;94940.13;5034683;28;20860;-77
2021/07/29 07:56:22;;;;;;;25.23;12.50;;;;;;;35.87;29.36;94932.66;5053418;28;20797;-77
2021/07/29 07:58:50;;;;;;;25.87;11.97;;;;;;;35.88;29.45;94930.75;5053912;28;20441;-77
2021/07/29 08:01:19;;;;;;;30.77;12.00;;;;;;;35.86;28.49;94930.22;5053663;28;20438;-77
2021/07/29 08:03:47;;;;;;;30.53;10.47;;;;;;;35.86;28.05;94927.47;5053279;28;20528;-77
2021/07/29 08:06:14;;;;;;;21.80;11.50;;;;;;;35.88;29.46;94919.81;5053177;28;20956;-77
2021/07/29 08:08:42;;;;;;;19.73;11.07;;;;;;;35.99;29.99;94921.31;5053612;28;20448;-77
2021/07/29 08:11:09;;;;;;;33.30;11.60;;;;;;;36.17;30.22;94923.34;5052666;28;20488;-78
2021/07/29 08:13:36;;;;;;;29.93;10.13;;;;;;;36.25;29.92;94919.94;5053310;28;20488;-77
2021/07/29 08:16:08;;;;;;;30.13;11.20;;;;;;;36.17;29.05;94925.25;5053463;28;20452;-77
2021/07/29 08:18:34;;;;;;;29.80;13.00;;;;;;;35.77;30.44;94920.97;5053327;28;20441;-78
2021/07/29 08:21:01;;;;;;;19.90;12.00;;;;;;;35.66;29.18;94914.78;5053445;28;20441;-78
2021/07/29 08:23:29;;;;;;;33.13;12.20;;;;;;;35.53;29.74;94909.97;5053410;28;20798;-77
2021/07/29 08:25:56;;;;;;;21.87;10.53;;;;;;;35.57;29.95;94909.13;5053166;28;20449;-77
2021/07/29 08:28:22;;;;;;;26.53;10.83;;;;;;;35.67;30.43;94903.56;5052858;28;20781;-77
2021/07/29 08:30:50;;;;;;;27.83;11.83;;;;;;;35.57;29.77;94906.41;5052947;28;20524;-77
2021/07/29 08:33:19;;;;;;;33.60;11.83;;;;;;;35.80;29.60;94909.47;5052623;28;21065;-77
2021/07/29 08:35:46;;;;;;;23.17;10.97;;;;;;;35.90;28.69;94912.97;5052929;28;20852;-77
2021/07/29 08:38:13;;;;;;;19.40;9.70;;;;;;;35.92;29.97;94897.09;5052799;28;20454;-77
2021/07/29 08:40:40;;;;;;;25.90;11.47;;;;;;;36.08;29.29;94895.00;5052837;28;20449;-77
2021/07/29 08:43:07;;;;;;;24.23;12.10;;;;;;;36.10;27.92;94892.78;5052601;28;20438;-77
2021/07/29 08:45:42;;;;;;;25.43;11.00;;;;;;;36.06;28.34;94894.47;5053038;28;21038;-77
2021/07/29 08:48:10;;;;;;;24.07;10.37;;;;;;;36.16;27.65;94891.66;5033972;28;21397;-77
2021/07/29 08:50:39;;;;;;;21.13;10.50;;;;;;;36.18;29.10;94889.44;5033913;28;20438;-77
2021/07/29 08:53:06;;;;;;;25.30;10.00;;;;;;;36.17;28.32;94890.53;5052740;28;20477;-77
2021/07/29 08:55:33;;;;;;;27.63;11.83;;;;;;;36.25;28.79;94886.34;5053029;28;20441;-77
2021/07/29 08:58:00;;;;;;;20.10;10.10;;;;;;;36.35;28.20;94886.25;5033917;28;20936;-77
2021/07/29 09:00:27;;;;;;;28.17;10.40;;;;;;;36.23;27.15;94886.63;5052942;28;20517;-77
2021/07/29 09:02:54;;;;;;;23.30;10.17;;;;;;;36.39;29.84;94889.19;5052549;28;20540;-77
2021/07/29 09:05:22;;;;;;;32.27;12.20;;;;;;;36.48;28.35;94874.63;5052590;28;20449;-77
2021/07/29 09:08:06;;;;;;;29.53;12.00;;;;;;;36.54;28.16;94880.81;5034033;28;20445;-77
2021/07/29 09:10:33;;;;;;;19.17;10.17;;;;;;;36.17;29.01;94882.34;5052655;28;20457;-78
2021/07/29 09:13:08;;;;;;;27.33;11.60;;;;;;;36.14;29.54;94882.91;5033660;28;20960;-77
2021/07/29 09:15:36;;;;;;;29.70;10.83;;;;;;;36.37;29.04;94869.56;5033906;28;20449;-77
2021/07/29 09:18:03;;;;;;;20.07;11.20;;;;;;;36.47;28.76;94872.97;5052357;28;20496;-77
2021/07/29 09:20:30;;;;;;;27.03;11.37;;;;;;;35.84;29.89;94873.13;5052707;28;20448;-77
2021/07/29 09:23:12;;;;;;;30.07;12.00;;;;;;;35.87;31.35;94866.28;5054187;28;20936;-77
2021/07/29 09:25:40;;;;;;;20.43;11.50;;;;;;;35.98;29.49;94868.59;5056743;28;20448;-77
2021/07/29 09:28:08;;;;;;;25.20;12.37;;;;;;;36.12;29.66;94868.72;5021445;28;20452;-78
2021/07/29 09:30:35;;;;;;;23.90;12.17;;;;;;;36.18;28.88;94864.84;5056490;28;20453;-77
2021/07/29 09:33:05;;;;;;;29.80;12.17;;;;;;;36.27;28.76;94854.06;5056166;28;20440;-77
2021/07/29 09:35:37;;;;;;;19.10;10.13;;;;;;;36.44;29.03;94846.25;5056139;28;20449;-77
2021/07/29 09:38:06;;;;;;;17.80;11.73;;;;;;;36.50;29.36;94846.97;5056376;28;20456;-77
2021/07/29 09:40:58;;;;;;;24.63;11.13;;;;;;;36.58;29.50;94852.59;5056212;28;20437;-77
2021/07/29 09:43:28;;;;;;;25.53;11.80;;;;;;;36.59;28.33;94845.19;4994420;28;20456;-77
2021/07/29 09:45:56;;;;;;;22.40;11.13;;;;;;;36.57;28.13;94844.69;4994216;28;21067;-77
2021/07/29 09:48:25;;;;;;;28.70;12.30;;;;;;;36.40;28.37;94841.63;4994377;28;20448;-77
2021/07/29 09:50:54;;;;;;;20.70;11.97;;;;;;;36.50;28.95;94841.50;4994427;28;20444;-77
2021/07/29 09:53:23;;;;;;;28.53;11.60;;;;;;;36.07;29.24;94846.91;4994179;28;20484;-77
2021/07/29 09:55:50;;;;;;;26.60;12.77;;;;;;;36.00;29.80;94839.06;4962269;28;20950;-77
2021/07/29 09:58:18;;;;;;;36.80;12.67;;;;;;;36.14;30.06;94855.56;4961902;28;20531;-77
2021/07/29 10:00:45;;;;;;;25.40;11.83;;;;;;;36.22;28.18;94852.22;4993853;28;20450;-77
2021/07/29 10:03:13;;;;;;;16.57;10.43;;;;;;;36.23;26.14;94836.63;4994194;28;20452;-77
2021/07/29 10:05:50;;;;;;;21.87;11.37;;;;;;;36.32;27.79;94839.56;4961282;28;20450;-77
2021/07/29 10:08:26;;;;;;;21.13;12.07;;;;;;;36.42;27.94;94839.41;4994085;28;20455;-77
2021/07/29 10:10:53;;;;;;;19.37;10.90;;;;;;;36.43;26.58;94835.56;4993869;28;20950;-77
2021/07/29 10:13:33;;;;;;;23.27;11.23;;;;;;;36.26;26.90;94836.03;4993832;28;20455;-78
2021/07/29 10:16:00;;;;;;;20.00;11.20;;;;;;;36.23;26.89;94837.44;4993968;28;20448;-77
2021/07/29 10:18:27;;;;;;;25.20;12.13;;;;;;;36.26;26.95;94831.38;4993823;28;20455;-84
2021/07/29 10:21:22;;;;;;;31.90;10.63;;;;;;;36.02;26.52;94825.13;5038331;28;20457;-79
2021/07/29 10:23:53;;;;;;;25.17;11.20;;;;;;;36.15;26.58;94818.97;5055759;28;20445;-81
2021/07/29 10:26:21;;;;;;;19.83;11.47;;;;;;;36.12;27.73;94818.72;5055953;28;20472;-77
2021/07/29 10:28:49;;;;;;;17.47;9.60;;;;;;;36.13;26.74;94821.16;5055651;28;20447;-79
2021/07/29 10:31:18;;;;;;;26.73;10.40;;;;;;;36.21;25.04;94828.72;5054392;28;20453;-80
2021/07/29 10:33:47;;;;;;;26.53;10.87;;;;;;;36.25;24.50;94823.47;5036631;28;21023;-79
2021/07/29 10:36:48;;;;;;;28.40;11.53;;;;;;;36.17;25.21;94822.22;5035083;28;20787;-79
2021/07/29 10:39:15;;;;;;;21.90;8.87;;;;;;;36.22;25.53;94815.88;5013670;28;20468;-80
2021/07/29 10:41:47;;;;;;;24.30;9.70;;;;;;;36.16;24.85;94817.88;5013565;28;20509;-79
2021/07/29 10:44:57;;;;;;;23.73;8.77;;;;;;;36.20;24.95;94805.25;5013424;28;20451;-80
2021/07/29 10:47:40;;;;;;;27.70;9.47;;;;;;;36.32;24.40;94812.22;5013829;28;20451;-79
2021/07/29 10:50:23;;;;;;;25.70;9.27;;;;;;;36.33;24.77;94809.19;5013458;28;20447;-82
2021/07/29 10:52:52;;;;;;;32.43;10.70;;;;;;;36.29;24.55;94805.38;4935944;29;20551;-82
2021/07/29 10:55:21;;;;;;;32.20;10.77;;;;;;;36.32;25.04;94795.81;4937369;29;21278;-88
2021/07/29 10:58:10;;;;;;;27.43;9.47;;;;;;;36.31;24.62;94797.75;4936089;29;20971;-82
2021/07/29 11:00:37;;;;;;;25.93;9.80;;;;;;;36.36;24.81;94788.66;4935959;29;20536;-83
2021/07/29 11:03:21;;;;;;;22.60;8.73;;;;;;;36.43;23.18;94802.75;4937575;29;20458;-80
2021/07/29 11:05:54;;;;;;;31.80;9.77;;;;;;;36.49;23.66;94790.66;4955488;29;20950;-79
2021/07/29 11:08:28;;;;;;;22.67;8.87;;;;;;;36.58;23.36;94795.16;4954580;29;20472;-78
2021/07/29 11:10:59;;;;;;;24.10;8.40;;;;;;;36.62;22.97;94789.91;4985806;28;20448;-80
2021/07/29 11:13:27;;;;;;;25.37;9.83;;;;;;;36.58;22.76;94786.97;4993651;28;20788;-81
2021/07/29 11:15:55;;;;;;;25.13;8.83;;;;;;;36.62;22.83;94787.19;4993073;28;20455;-77
2021/07/29 11:18:23;;;;;;;28.57;9.00;;;;;;;36.73;23.83;94780.47;4944211;28;20449;-77
2021/07/29 11:20:51;;;;;;;24.53;8.40;;;;;;;36.65;22.79;94783.84;4993538;28;20456;-81
2021/07/29 11:23:33;;;;;;;22.90;10.20;;;;;;;36.60;22.44;94776.53;4992994;28;20452;-77
2021/07/29 11:26:01;;;;;;;26.97;9.50;;;;;;;36.64;23.00;94770.47;4994927;28;20453;-76
2021/07/29 11:28:28;;;;;;;27.10;9.33;;;;;;;36.59;22.20;94780.38;4992385;28;20452;-78